Time;durP1;ratioP1;P1;durP2;ratioP2;P2;SDS_P1;SDS_P2;PMS_P1;PMS_P2;Temp;Humidity;BMP_temperature;BMP_pressure;BME280_temperature;BME280_humidity;BME280_pressure;Samples;Min_cycle;Max_cycle;Signal;HPM_P1;HPM_P2
2022/11/26 00:02:24;;;;;;;15.80;2.60;;;7.70;99.90;;;;;;5025091;28;20037;-70
2022/11/26 00:04:53;;;;;;;21.90;2.95;;;7.70;99.90;;;;;;5024843;28;20041;-72
2022/11/26 00:07:25;;;;;;;19.25;2.17;;;7.70;99.90;;;;;;5020478;28;20056;-65
2022/11/26 00:09:54;;;;;;;17.13;2.20;;;7.70;99.90;;;;;;5023899;28;20061;-78
2022/11/26 00:12:24;;;;;;;20.60;2.30;;;7.70;99.90;;;;;;5018653;28;20417;-73
2022/11/26 00:14:52;;;;;;;12.57;2.35;;;7.70;99.90;;;;;;5032478;28;20048;-79
2022/11/26 00:17:20;;;;;;;11.27;1.83;;;7.70;99.90;;;;;;5049971;28;20052;-82
2022/11/26 00:19:48;;;;;;;8.23;1.13;;;7.70;99.90;;;;;;5025778;28;20045;-73
2022/11/26 00:22:25;;;;;;;15.05;2.00;;;7.70;99.90;;;;;;5023782;28;20061;-79
2022/11/26 00:24:53;;;;;;;15.25;2.72;;;7.70;99.90;;;;;;5020964;28;20045;-85
2022/11/26 00:27:24;;;;;;;15.88;1.98;;;7.70;99.90;;;;;;5025807;28;20389;-76
2022/11/26 00:29:53;;;;;;;17.50;2.00;;;7.80;99.90;;;;;;5021957;28;20041;-81
2022/11/26 00:32:24;;;;;;;12.77;2.45;;;7.70;99.90;;;;;;5025427;28;20041;-69
2022/11/26 00:34:52;;;;;;;14.88;1.92;;;7.80;99.90;;;;;;5027051;28;20052;-62
2022/11/26 00:37:34;;;;;;;8.95;1.40;;;7.70;99.90;;;;;;5009987;28;20528;-62
2022/11/26 00:40:02;;;;;;;19.70;2.60;;;7.70;99.90;;;;;;5024968;28;20041;-62
2022/11/26 00:42:29;;;;;;;17.17;1.83;;;7.70;99.90;;;;;;5025402;28;20052;-68
2022/11/26 00:44:57;;;;;;;17.98;2.33;;;7.70;99.90;;;;;;5027469;28;20045;-67
2022/11/26 00:47:25;;;;;;;10.18;2.10;;;7.70;99.90;;;;;;5020068;28;20050;-63
2022/11/26 00:49:52;;;;;;;19.50;2.85;;;7.70;99.90;;;;;;5024904;28;20050;-61
2022/11/26 00:52:31;;;;;;;22.40;2.33;;;7.70;99.90;;;;;;5008521;28;20045;-63
2022/11/26 00:55:09;;;;;;;14.18;1.80;;;7.70;99.90;;;;;;5015224;28;20548;-62
2022/11/26 00:57:36;;;;;;;10.82;2.65;;;7.60;99.90;;;;;;5023316;28;20048;-62
2022/11/26 01:00:17;;;;;;;16.52;2.38;;;7.60;99.90;;;;;;5020313;28;20052;-62
2022/11/26 01:02:45;;;;;;;17.00;1.90;;;7.60;99.90;;;;;;5020368;28;20049;-65
2022/11/26 01:05:13;;;;;;;19.67;2.33;;;7.60;99.90;;;;;;5026459;28;20045;-61
2022/11/26 01:07:43;;;;;;;20.02;2.90;;;7.50;99.90;;;;;;5014269;28;20045;-61
2022/11/26 01:10:23;;;;;;;16.77;2.80;;;7.50;99.90;;;;;;5015569;28;20038;-68
2022/11/26 01:12:52;;;;;;;16.05;2.13;;;7.50;99.90;;;;;;5016608;28;20049;-62
2022/11/26 01:15:22;;;;;;;17.85;2.50;;;7.50;99.90;;;;;;5020412;28;20440;-62
2022/11/26 01:17:51;;;;;;;11.88;2.03;;;7.50;99.90;;;;;;5011411;28;20050;-66
2022/11/26 01:20:28;;;;;;;14.13;2.08;;;7.50;99.90;;;;;;5025065;28;20386;-66
2022/11/26 01:22:57;;;;;;;17.75;2.50;;;7.60;99.90;;;;;;5024647;28;20042;-62
2022/11/26 01:25:26;;;;;;;20.27;2.30;;;7.60;99.90;;;;;;5009868;28;20497;-65
2022/11/26 01:27:53;;;;;;;15.57;2.33;;;7.60;99.90;;;;;;5011390;28;20804;-62
2022/11/26 01:30:24;;;;;;;13.18;2.05;;;7.60;99.90;;;;;;5017525;28;20498;-62
2022/11/26 01:32:52;;;;;;;22.73;2.90;;;7.70;99.90;;;;;;5008328;28;20053;-62
2022/11/26 01:35:21;;;;;;;17.08;2.00;;;7.60;99.90;;;;;;5044518;28;20053;-62
2022/11/26 01:37:49;;;;;;;16.25;1.80;;;7.60;99.90;;;;;;5016993;28;20045;-65
2022/11/26 01:40:25;;;;;;;10.82;1.90;;;7.60;99.90;;;;;;5021551;28;20042;-61
2022/11/26 01:43:21;;;;;;;13.50;2.80;;;7.60;99.90;;;;;;5013123;28;20041;-68
2022/11/26 01:45:48;;;;;;;12.70;2.40;;;7.60;99.90;;;;;;5021050;28;20041;-62
2022/11/26 01:48:30;;;;;;;20.27;1.98;;;7.60;99.90;;;;;;5024966;28;20060;-62
2022/11/26 01:51:03;;;;;;;19.38;2.80;;;7.60;99.90;;;;;;5020704;28;20049;-61
2022/11/26 01:53:40;;;;;;;14.05;3.03;;;7.60;99.90;;;;;;5025866;28;20057;-60
2022/11/26 01:56:19;;;;;;;23.48;2.83;;;7.60;99.90;;;;;;5027384;28;20045;-64
2022/11/26 01:58:52;;;;;;;24.17;3.22;;;7.60;99.90;;;;;;5019783;28;20041;-66
2022/11/26 02:01:20;;;;;;;18.77;2.78;;;7.60;99.90;;;;;;5027483;28;20080;-62
2022/11/26 02:04:16;;;;;;;18.75;2.42;;;7.60;99.90;;;;;;5024099;28;20060;-62
2022/11/26 02:06:46;;;;;;;14.77;2.45;;;7.50;99.90;;;;;;5010604;28;20045;-68
2022/11/26 02:09:15;;;;;;;19.85;2.20;;;7.50;99.90;;;;;;5026413;28;20542;-62
2022/11/26 02:11:43;;;;;;;20.60;2.58;;;7.50;99.90;;;;;;5025874;28;20053;-62
2022/11/26 02:14:24;;;;;;;17.60;2.47;;;7.50;99.90;;;;;;5028909;28;20076;-61
2022/11/26 02:17:35;;;;;;;19.98;2.78;;;7.50;99.90;;;;;;5014851;28;20053;-62
2022/11/26 02:20:32;;;;;;;15.82;2.33;;;7.60;99.90;;;;;;5009620;28;20046;-62
2022/11/26 02:23:20;;;;;;;14.98;1.75;;;7.60;99.90;;;;;;5010039;28;20053;-62
2022/11/26 02:26:21;;;;;;;35.45;2.55;;;7.60;99.90;;;;;;5013324;28;20054;-63
2022/11/26 02:29:07;;;;;;;17.52;2.10;;;7.50;99.90;;;;;;5023359;28;20405;-62
2022/11/26 02:31:44;;;;;;;14.23;2.55;;;7.50;99.90;;;;;;5020705;28;20057;-73
2022/11/26 02:34:17;;;;;;;17.92;1.80;;;7.50;99.90;;;;;;5054623;28;20038;-81
2022/11/26 02:37:07;;;;;;;21.10;5.13;;;7.50;99.90;;;;;;5031901;28;20535;-66
2022/11/26 02:39:35;;;;;;;15.30;2.00;;;7.50;99.90;;;;;;5017271;28;20073;-73
2022/11/26 02:42:20;;;;;;;17.77;2.05;;;7.40;99.90;;;;;;5013577;28;20042;-84
2022/11/26 02:44:48;;;;;;;12.65;2.20;;;7.40;99.90;;;;;;5028752;28;20052;-86
2022/11/26 02:47:18;;;;;;;16.63;3.35;;;7.40;99.90;;;;;;5016790;28;20061;-83
2022/11/26 02:49:48;;;;;;;19.75;2.60;;;7.40;99.90;;;;;;5046556;28;20041;-81
2022/11/26 02:52:18;;;;;;;25.85;2.95;;;7.40;99.90;;;;;;5033814;28;20048;-82
2022/11/26 02:54:48;;;;;;;21.25;2.40;;;7.30;99.90;;;;;;5019792;28;20045;-85
2022/11/26 02:57:19;;;;;;;8.98;1.80;;;7.40;99.90;;;;;;5025972;28;20037;-66
2022/11/26 02:59:47;;;;;;;11.30;1.70;;;7.40;99.90;;;;;;5025868;28;20049;-85
2022/11/26 03:02:46;;;;;;;20.48;3.33;;;7.40;99.90;;;;;;5026030;28;20049;-74
2022/11/26 03:05:17;;;;;;;16.23;2.83;;;7.40;99.90;;;;;;5019993;28;20034;-75
2022/11/26 03:07:48;;;;;;;9.98;1.65;;;7.40;99.90;;;;;;5029262;28;20042;-86
2022/11/26 03:10:16;;;;;;;16.60;2.92;;;7.40;99.90;;;;;;5041191;28;20517;-86
2022/11/26 03:12:44;;;;;;;18.35;2.08;;;7.40;99.90;;;;;;5030532;28;20041;-72
2022/11/26 03:15:11;;;;;;;15.70;2.60;;;7.40;99.90;;;;;;5032375;28;20045;-71
2022/11/26 03:17:39;;;;;;;30.60;3.25;;;7.40;99.90;;;;;;5027164;28;20049;-73
2022/11/26 03:20:07;;;;;;;25.02;2.97;;;7.40;99.90;;;;;;5022057;28;20060;-62
2022/11/26 03:22:35;;;;;;;17.88;2.85;;;7.40;99.90;;;;;;5026353;28;20355;-63
2022/11/26 03:25:04;;;;;;;23.23;2.70;;;7.40;99.90;;;;;;5018824;28;20046;-63
2022/11/26 03:27:32;;;;;;;24.73;3.03;;;7.40;99.90;;;;;;5028152;28;20056;-62
2022/11/26 03:29:59;;;;;;;16.58;2.63;;;7.40;99.90;;;;;;5027860;28;20037;-80
2022/11/26 03:32:27;;;;;;;15.13;2.25;;;7.30;99.90;;;;;;5022928;28;20042;-62
2022/11/26 03:34:55;;;;;;;16.55;1.80;;;7.30;99.90;;;;;;5012745;28;20056;-62
2022/11/26 03:37:22;;;;;;;19.98;2.90;;;7.20;99.90;;;;;;5022712;28;20045;-61
2022/11/26 03:39:50;;;;;;;24.70;2.25;;;7.30;99.90;;;;;;5027327;28;20060;-62
2022/11/26 03:42:17;;;;;;;21.35;2.35;;;7.20;99.90;;;;;;5030595;28;20042;-62
2022/11/26 03:44:45;;;;;;;17.67;2.53;;;7.20;99.90;;;;;;5016273;28;20057;-61
2022/11/26 03:47:12;;;;;;;14.02;2.45;;;7.20;99.90;;;;;;5028391;28;20042;-65
2022/11/26 03:49:40;;;;;;;19.10;2.30;;;7.10;99.90;;;;;;5025441;28;20041;-64
2022/11/26 03:52:07;;;;;;;16.10;2.55;;;7.00;99.90;;;;;;5029319;28;20050;-61
2022/11/26 03:54:35;;;;;;;20.80;2.47;;;7.00;99.90;;;;;;5023610;28;20056;-72
2022/11/26 03:57:03;;;;;;;17.02;2.17;;;7.00;99.90;;;;;;5018936;28;20396;-62
2022/11/26 03:59:30;;;;;;;16.80;2.13;;;7.00;99.90;;;;;;5026988;28;20061;-61
2022/11/26 04:01:58;;;;;;;15.98;2.60;;;6.90;99.90;;;;;;5028613;28;20049;-62
2022/11/26 04:04:26;;;;;;;13.75;2.38;;;6.90;99.90;;;;;;5020093;28;20049;-61
2022/11/26 04:06:53;;;;;;;17.67;3.25;;;6.90;99.90;;;;;;5030187;28;20397;-66
2022/11/26 04:09:21;;;;;;;14.27;2.42;;;6.90;99.90;;;;;;5037530;28;20044;-61
2022/11/26 04:11:49;;;;;;;14.27;1.85;;;6.90;99.90;;;;;;5039495;28;20068;-61
2022/11/26 04:14:17;;;;;;;15.68;1.88;;;6.90;99.90;;;;;;5014997;28;20375;-62
2022/11/26 04:16:45;;;;;;;21.65;3.70;;;6.90;99.90;;;;;;5016448;28;20393;-61
2022/11/26 04:19:12;;;;;;;30.20;3.28;;;6.90;99.90;;;;;;5017749;28;20049;-62
2022/11/26 04:21:40;;;;;;;9.00;2.80;;;6.80;99.90;;;;;;5027165;28;20508;-61
2022/11/26 04:24:07;;;;;;;20.38;2.63;;;6.80;99.90;;;;;;5020210;28;20500;-63
2022/11/26 04:26:35;;;;;;;18.90;3.53;;;6.80;99.90;;;;;;5012126;28;20038;-62
2022/11/26 04:29:03;;;;;;;19.17;3.72;;;6.80;99.90;;;;;;5011556;28;20046;-61
2022/11/26 04:31:30;;;;;;;18.65;2.58;;;6.80;99.90;;;;;;5011908;28;20046;-65
2022/11/26 04:33:58;;;;;;;25.77;4.45;;;6.80;99.90;;;;;;5027862;28;20393;-61
2022/11/26 04:36:26;;;;;;;23.38;3.60;;;6.80;99.90;;;;;;5027376;28;20060;-62
2022/11/26 04:38:53;;;;;;;16.73;2.55;;;6.80;99.90;;;;;;5019553;28;20041;-64
2022/11/26 04:41:21;;;;;;;16.15;3.35;;;6.80;99.90;;;;;;5027633;28;20520;-62
2022/11/26 04:43:48;;;;;;;18.92;3.10;;;6.80;99.90;;;;;;5022568;28;20100;-63
2022/11/26 04:46:16;;;;;;;22.70;3.47;;;6.80;99.90;;;;;;5011159;28;20516;-61
2022/11/26 04:48:44;;;;;;;24.08;3.47;;;6.80;99.90;;;;;;5021235;28;20042;-68
2022/11/26 04:51:11;;;;;;;13.43;2.53;;;6.80;99.90;;;;;;5026084;28;20046;-62
2022/11/26 04:53:39;;;;;;;14.48;2.33;;;6.80;99.90;;;;;;5026783;28;20053;-72
2022/11/26 04:56:06;;;;;;;23.83;3.00;;;6.80;99.90;;;;;;5013081;28;20042;-76
2022/11/26 04:58:34;;;;;;;16.08;2.13;;;6.90;99.90;;;;;;5012597;28;20124;-62
2022/11/26 05:01:01;;;;;;;19.48;2.72;;;6.90;99.90;;;;;;5018682;28;20050;-66
2022/11/26 05:03:29;;;;;;;16.70;2.72;;;6.90;99.90;;;;;;5021904;28;20501;-76
2022/11/26 05:05:57;;;;;;;11.88;2.25;;;6.90;99.90;;;;;;5016456;28;20044;-65
2022/11/26 05:08:24;;;;;;;14.38;2.05;;;7.00;99.90;;;;;;5025119;28;20046;-65
2022/11/26 05:10:53;;;;;;;21.25;2.85;;;6.90;99.90;;;;;;5032166;28;20141;-65
2022/11/26 05:13:21;;;;;;;21.92;2.95;;;7.00;99.90;;;;;;5027202;28;20146;-65
2022/11/26 05:15:49;;;;;;;26.75;3.00;;;7.00;99.90;;;;;;5019951;28;20062;-76
2022/11/26 05:18:16;;;;;;;21.02;3.63;;;7.00;99.90;;;;;;5013390;28;20049;-66
2022/11/26 05:20:44;;;;;;;14.23;2.85;;;7.00;99.90;;;;;;5024533;28;20049;-64
2022/11/26 05:23:12;;;;;;;17.35;3.30;;;7.00;99.90;;;;;;5019792;28;20068;-63
2022/11/26 05:25:40;;;;;;;16.17;3.17;;;7.00;99.90;;;;;;5019153;28;20054;-63
2022/11/26 05:28:08;;;;;;;23.33;2.65;;;7.00;99.90;;;;;;5010259;28;20045;-69
2022/11/26 05:30:36;;;;;;;27.92;3.78;;;7.00;99.90;;;;;;5030163;28;20061;-67
2022/11/26 05:33:04;;;;;;;14.02;2.58;;;7.00;99.90;;;;;;5014776;28;20050;-76
2022/11/26 05:35:31;;;;;;;23.20;3.55;;;7.10;99.90;;;;;;5014495;28;20429;-78
2022/11/26 05:37:59;;;;;;;33.33;4.90;;;7.10;99.90;;;;;;5016019;28;20042;-67
2022/11/26 05:40:26;;;;;;;14.32;2.83;;;7.10;99.90;;;;;;5028161;28;20378;-77
2022/11/26 05:42:54;;;;;;;22.75;3.63;;;7.10;99.90;;;;;;5028181;28;20041;-66
2022/11/26 05:45:22;;;;;;;17.50;2.85;;;7.10;99.90;;;;;;5013936;28;20497;-72
2022/11/26 05:47:49;;;;;;;22.00;2.85;;;7.10;99.90;;;;;;5013785;28;20042;-71
2022/11/26 05:50:17;;;;;;;25.50;3.22;;;7.00;99.90;;;;;;5011601;28;20057;-72
2022/11/26 05:52:44;;;;;;;20.95;3.72;;;7.00;99.90;;;;;;5028250;28;20039;-82
2022/11/26 05:55:12;;;;;;;18.92;3.15;;;7.00;99.90;;;;;;5027314;28;20053;-69
2022/11/26 05:57:40;;;;;;;31.23;3.92;;;7.00;99.90;;;;;;5018124;28;20481;-62
2022/11/26 06:00:09;;;;;;;25.27;3.55;;;7.00;99.90;;;;;;5024712;28;20049;-86
2022/11/26 06:02:40;;;;;;;24.73;3.83;;;6.80;99.90;;;;;;5010835;28;20042;-63
2022/11/26 06:05:08;;;;;;;20.58;3.42;;;6.90;99.90;;;;;;5013058;28;20057;-62
2022/11/26 06:07:36;;;;;;;32.58;5.03;;;7.00;99.90;;;;;;5025742;28;20037;-62
2022/11/26 06:10:10;;;;;;;20.17;5.00;;;7.00;99.90;;;;;;5030154;28;20057;-62
2022/11/26 06:12:37;;;;;;;33.60;4.53;;;7.00;99.90;;;;;;5028949;28;20045;-64
2022/11/26 06:15:06;;;;;;;21.63;4.15;;;7.00;99.90;;;;;;5025774;28;20042;-62
2022/11/26 06:17:33;;;;;;;32.67;3.97;;;7.00;99.90;;;;;;5024137;28;20058;-65
2022/11/26 06:20:01;;;;;;;26.45;3.35;;;6.90;99.90;;;;;;5006898;28;20042;-62
2022/11/26 06:22:29;;;;;;;26.30;3.65;;;6.90;99.90;;;;;;5009049;28;20049;-62
2022/11/26 06:24:57;;;;;;;34.20;4.43;;;6.90;99.90;;;;;;5016179;28;20448;-66
2022/11/26 06:27:24;;;;;;;24.73;3.30;;;6.90;99.90;;;;;;5032324;28;20434;-63
2022/11/26 06:29:52;;;;;;;33.65;5.13;;;6.80;99.90;;;;;;5035505;28;20041;-62
2022/11/26 06:32:20;;;;;;;26.58;3.83;;;6.80;99.90;;;;;;5046523;28;20041;-64
2022/11/26 06:34:48;;;;;;;26.98;3.53;;;6.80;99.90;;;;;;5025921;28;20382;-63
2022/11/26 06:37:20;;;;;;;22.40;3.55;;;6.80;99.90;;;;;;5020271;28;20053;-62
2022/11/26 06:39:48;;;;;;;26.77;3.95;;;6.80;99.90;;;;;;5026786;28;20505;-61
2022/11/26 06:42:16;;;;;;;26.08;3.47;;;;;;;;;;5025327;28;20049;-62
2022/11/26 06:44:45;;;;;;;26.13;3.78;;;6.80;99.90;;;;;;5019593;28;20057;-61
2022/11/26 06:47:13;;;;;;;30.65;3.85;;;6.80;99.90;;;;;;5052786;28;20046;-64
2022/11/26 06:49:41;;;;;;;24.65;3.97;;;6.80;99.90;;;;;;5009049;28;20405;-67
2022/11/26 06:52:09;;;;;;;33.10;3.88;;;6.80;99.90;;;;;;5016317;28;20041;-61
2022/11/26 06:54:36;;;;;;;30.80;3.42;;;6.80;99.90;;;;;;5026781;28;20437;-62
2022/11/26 06:57:05;;;;;;;30.85;5.25;;;6.80;99.90;;;;;;5018614;28;20061;-62
2022/11/26 06:59:33;;;;;;;24.52;3.40;;;6.70;99.90;;;;;;5020875;28;20053;-64
2022/11/26 07:02:00;;;;;;;29.67;5.50;;;6.70;99.90;;;;;;5007676;28;20390;-61
2022/11/26 07:04:28;;;;;;;24.35;3.97;;;6.70;99.90;;;;;;5020376;28;20405;-62
2022/11/26 07:06:56;;;;;;;27.42;6.05;;;6.70;99.90;;;;;;5024291;28;20064;-62
2022/11/26 07:09:24;;;;;;;32.42;4.68;;;6.90;99.90;;;;;;5013956;28;20057;-62
2022/11/26 07:11:51;;;;;;;24.77;3.60;;;6.80;99.90;;;;;;5018304;28;20041;-62
2022/11/26 07:14:21;;;;;;;16.50;4.00;;;6.80;99.90;;;;;;5017891;28;20494;-63
2022/11/26 07:16:48;;;;;;;24.42;3.47;;;6.80;99.90;;;;;;5018482;28;20041;-62
2022/11/26 07:19:16;;;;;;;18.02;4.00;;;6.80;99.90;;;;;;5013052;28;20046;-62
2022/11/26 07:21:44;;;;;;;34.83;3.78;;;6.80;99.90;;;;;;5019142;28;20057;-63
2022/11/26 07:24:11;;;;;;;36.53;4.60;;;6.80;99.90;;;;;;5026999;28;20041;-61
2022/11/26 07:26:39;;;;;;;26.75;3.85;;;6.80;99.90;;;;;;5009510;28;20041;-62
2022/11/26 07:29:06;;;;;;;21.98;3.03;;;6.80;99.90;;;;;;5017675;28;20049;-62
2022/11/26 07:31:35;;;;;;;32.08;3.90;;;6.80;99.90;;;;;;5014550;28;20498;-62
2022/11/26 07:34:03;;;;;;;24.23;3.20;;;6.70;99.90;;;;;;5012905;28;20050;-62
2022/11/26 07:36:31;;;;;;;29.63;4.38;;;6.70;99.90;;;;;;5017766;28;20058;-62
2022/11/26 07:39:01;;;;;;;25.30;3.75;;;6.70;99.90;;;;;;5038805;28;20037;-63
2022/11/26 07:41:29;;;;;;;22.73;3.47;;;6.70;99.90;;;;;;4995468;28;20500;-63
2022/11/26 07:43:57;;;;;;;30.38;4.53;;;6.70;99.90;;;;;;5020420;28;20041;-62
2022/11/26 07:46:25;;;;;;;23.20;3.92;;;6.70;99.90;;;;;;5018788;28;20053;-62
2022/11/26 07:48:54;;;;;;;27.25;3.58;;;6.70;99.90;;;;;;5013489;28;20050;-62
2022/11/26 07:51:25;;;;;;;27.05;3.28;;;6.70;99.90;;;;;;5021928;28;20609;-62
2022/11/26 07:53:54;;;;;;;23.83;3.60;;;6.70;99.90;;;;;;5027575;28;20056;-62
2022/11/26 07:56:25;;;;;;;23.88;3.28;;;6.70;99.90;;;;;;5021762;28;20512;-62
2022/11/26 07:58:54;;;;;;;23.95;3.22;;;6.70;99.90;;;;;;5012421;28;20057;-62
2022/11/26 08:01:25;;;;;;;22.42;3.88;;;6.70;99.90;;;;;;5014265;28;20080;-62
2022/11/26 08:03:55;;;;;;;24.25;4.20;;;6.80;99.90;;;;;;5010483;28;20054;-66
2022/11/26 08:06:25;;;;;;;27.35;3.38;;;6.80;99.90;;;;;;5005889;28;20050;-66
2022/11/26 08:08:52;;;;;;;19.55;3.13;;;6.80;99.90;;;;;;5025153;28;20053;-62
2022/11/26 08:11:23;;;;;;;30.23;3.95;;;6.80;99.90;;;;;;5019246;28;20057;-62
2022/11/26 08:13:58;;;;;;;25.90;3.58;;;6.80;99.90;;;;;;5019724;28;20045;-72
2022/11/26 08:16:26;;;;;;;22.45;3.78;;;6.90;99.90;;;;;;5028141;28;20066;-71
2022/11/26 08:19:00;;;;;;;19.85;3.17;;;6.90;99.90;;;;;;5028096;28;20038;-66
2022/11/26 08:21:28;;;;;;;29.27;4.82;;;6.90;99.90;;;;;;5010146;28;20126;-63
2022/11/26 08:23:55;;;;;;;28.40;3.15;;;7.00;99.90;;;;;;5032286;28;20048;-70
2022/11/26 08:26:24;;;;;;;27.95;3.20;;;7.00;99.90;;;;;;5036905;28;20423;-62
2022/11/26 08:29:01;;;;;;;14.80;2.45;;;7.00;99.90;;;;;;5043995;28;20041;-73
2022/11/26 08:31:29;;;;;;;21.17;2.88;;;7.00;99.90;;;;;;5039948;28;20516;-80
2022/11/26 08:33:58;;;;;;;25.83;3.40;;;7.10;99.90;;;;;;5020648;28;20038;-82
2022/11/26 08:36:28;;;;;;;23.38;2.80;;;7.10;99.90;;;;;;5009540;28;20057;-76
2022/11/26 08:38:56;;;;;;;26.85;3.25;;;7.10;99.90;;;;;;5022369;28;20053;-64
2022/11/26 08:41:24;;;;;;;15.82;3.03;;;7.20;99.90;;;;;;5019759;28;20524;-86
2022/11/26 08:43:52;;;;;;;23.77;3.67;;;7.20;99.90;;;;;;5025843;28;20037;-67
2022/11/26 08:46:36;;;;;;;19.20;2.30;;;7.20;99.90;;;;;;5026299;28;20812;-77
2022/11/26 08:49:05;;;;;;;19.30;2.20;;;7.30;99.90;;;;;;5019502;28;21352;-79
2022/11/26 08:51:33;;;;;;;27.33;3.13;;;7.30;99.90;;;;;;5023596;28;20386;-63
2022/11/26 08:54:01;;;;;;;19.55;3.22;;;7.30;99.90;;;;;;5023946;28;20497;-62
2022/11/26 08:56:29;;;;;;;20.65;2.88;;;7.30;99.90;;;;;;5060314;28;20041;-62
2022/11/26 08:58:57;;;;;;;16.50;2.55;;;7.40;99.90;;;;;;5019769;28;20389;-63
2022/11/26 09:01:27;;;;;;;24.40;4.53;;;7.40;99.90;;;;;;5014645;28;20045;-63
2022/11/26 09:03:58;;;;;;;35.80;3.65;;;7.40;99.90;;;;;;5020209;28;20542;-63
2022/11/26 09:06:28;;;;;;;20.95;3.17;;;7.50;99.90;;;;;;5021435;28;20056;-63
2022/11/26 09:09:11;;;;;;;14.80;2.33;;;7.60;99.90;;;;;;5022111;28;20045;-63
2022/11/26 09:11:45;;;;;;;20.38;3.35;;;7.70;99.90;;;;;;5026648;28;20064;-63
2022/11/26 09:14:14;;;;;;;22.27;3.00;;;7.80;99.90;;;;;;5022755;28;20560;-62
2022/11/26 09:16:42;;;;;;;22.13;3.22;;;7.80;99.90;;;;;;5024402;28;20924;-66
2022/11/26 09:19:12;;;;;;;21.15;2.38;;;7.90;99.90;;;;;;5023178;28;20046;-62
2022/11/26 09:21:40;;;;;;;25.77;2.47;;;8.00;99.90;;;;;;5018890;28;20538;-62
2022/11/26 09:24:07;;;;;;;18.67;2.53;;;8.00;99.90;;;;;;5031214;28;20068;-62
2022/11/26 09:26:36;;;;;;;19.83;4.47;;;8.00;99.90;;;;;;5023911;28;20061;-62
2022/11/26 09:29:04;;;;;;;30.52;2.97;;;8.10;99.90;;;;;;5023454;28;20049;-62
2022/11/26 09:31:32;;;;;;;24.73;3.10;;;8.20;99.90;;;;;;5008343;28;20061;-62
2022/11/26 09:34:01;;;;;;;21.20;2.63;;;8.20;99.90;;;;;;5024216;28;20049;-62
2022/11/26 09:36:29;;;;;;;36.58;2.97;;;8.30;99.90;;;;;;5038280;28;20049;-62
2022/11/26 09:38:58;;;;;;;22.42;3.17;;;8.40;99.90;;;;;;5045972;28;20050;-63
2022/11/26 09:41:47;;;;;;;29.37;4.10;;;8.40;99.90;;;;;;5017761;28;20054;-64
2022/11/26 09:44:27;;;;;;;14.67;2.37;;;8.50;99.90;;;;;;5008721;28;20121;-63
2022/11/26 09:47:21;;;;;;;17.33;3.55;;;8.60;99.90;;;;;;5018068;28;20053;-62
2022/11/26 09:50:12;;;;;;;13.48;2.60;;;8.70;99.90;;;;;;5007730;28;20057;-62
2022/11/26 09:53:01;;;;;;;24.00;2.75;;;8.70;99.90;;;;;;5019993;28;20100;-63
2022/11/26 09:55:39;;;;;;;13.88;1.98;;;8.80;99.90;;;;;;5018580;28;20397;-62
2022/11/26 09:58:34;;;;;;;17.83;3.40;;;8.80;99.90;;;;;;5020849;28;20045;-62
2022/11/26 10:01:04;;;;;;;20.27;2.22;;;8.80;99.90;;;;;;5020308;28;20052;-62
2022/11/26 10:03:36;;;;;;;17.38;2.45;;;8.90;99.90;;;;;;5018202;28;20041;-67
2022/11/26 10:06:34;;;;;;;24.48;3.63;;;9.00;99.90;;;;;;5011760;28;20049;-71
2022/11/26 10:09:34;;;;;;;23.23;2.92;;;9.00;99.90;;;;;;5022627;28;20417;-70
2022/11/26 10:12:25;;;;;;;17.65;2.85;;;9.00;99.90;;;;;;5004181;28;20053;-67
2022/11/26 10:15:01;;;;;;;28.75;2.25;;;9.10;99.90;;;;;;5030367;28;20053;-73
2022/11/26 10:17:39;;;;;;;18.05;2.28;;;9.10;99.90;;;;;;5027412;28;20042;-65
2022/11/26 10:20:30;;;;;;;28.40;3.13;;;9.20;99.90;;;;;;5011906;28;20050;-67
2022/11/26 10:23:10;;;;;;;18.02;2.80;;;9.20;99.90;;;;;;5016957;28;20064;-62
2022/11/26 10:25:44;;;;;;;16.30;2.22;;;9.20;99.90;;;;;;5018256;28;20058;-68
2022/11/26 10:28:29;;;;;;;16.45;2.60;;;9.30;99.90;;;;;;5013748;28;20042;-65
2022/11/26 10:31:00;;;;;;;18.00;2.42;;;9.30;99.90;;;;;;5016792;28;20065;-68
2022/11/26 10:33:36;;;;;;;20.73;2.65;;;9.30;99.90;;;;;;5023284;28;20053;-62
2022/11/26 10:36:07;;;;;;;18.67;1.98;;;9.40;99.90;;;;;;5011288;28;20435;-72
2022/11/26 10:38:35;;;;;;;30.30;5.47;;;9.40;99.90;;;;;;5022675;28;20042;-68
2022/11/26 10:41:03;;;;;;;14.18;2.30;;;9.40;99.90;;;;;;5033624;28;20042;-64
2022/11/26 10:43:31;;;;;;;23.58;2.75;;;9.40;99.90;;;;;;5022296;28;20049;-66
2022/11/26 10:45:58;;;;;;;17.20;2.80;;;9.50;99.90;;;;;;5010941;28;20049;-69
2022/11/26 10:48:33;;;;;;;20.83;2.45;;;9.50;99.90;;;;;;5021927;28;20050;-65
2022/11/26 10:51:05;;;;;;;13.52;2.53;;;9.50;99.90;;;;;;5028719;28;20053;-70
2022/11/26 10:53:53;;;;;;;24.98;2.63;;;9.60;99.90;;;;;;5017911;28;20437;-69
2022/11/26 10:56:45;;;;;;;18.75;2.35;;;9.60;99.90;;;;;;5015103;28;20048;-79
2022/11/26 10:59:25;;;;;;;19.23;2.55;;;9.70;99.90;;;;;;5018285;28;20041;-70
2022/11/26 11:01:59;;;;;;;19.05;3.45;;;9.70;99.90;;;;;;5025306;28;20045;-70
2022/11/26 11:04:34;;;;;;;24.42;3.17;;;9.70;99.90;;;;;;5032400;28;20084;-69
2022/11/26 11:07:02;;;;;;;15.57;2.22;;;9.70;99.90;;;;;;5023398;28;20041;-67
2022/11/26 11:09:37;;;;;;;19.10;2.55;;;9.70;99.90;;;;;;5028707;28;20511;-77
2022/11/26 11:12:21;;;;;;;16.70;1.92;;;9.80;99.90;;;;;;5017240;28;20654;-74
2022/11/26 11:14:50;;;;;;;10.63;1.73;;;9.80;99.90;;;;;;5018380;28;20042;-79
2022/11/26 11:17:26;;;;;;;18.95;2.50;;;9.80;99.90;;;;;;5030958;28;20045;-76
2022/11/26 11:19:56;;;;;;;14.13;2.22;;;9.90;99.90;;;;;;5017053;28;20068;-78
2022/11/26 11:22:25;;;;;;;11.20;2.63;;;9.90;99.90;;;;;;5016587;28;20057;-77
2022/11/26 11:24:54;;;;;;;12.30;2.90;;;9.90;99.90;;;;;;5026682;28;20049;-82
2022/11/26 11:27:30;;;;;;;16.30;3.67;;;9.90;99.90;;;;;;5011052;28;20045;-78
2022/11/26 11:30:02;;;;;;;17.75;2.63;;;9.90;99.90;;;;;;5016051;28;21492;-79
2022/11/26 11:32:32;;;;;;;16.20;1.90;;;10.00;99.90;;;;;;5010640;28;20061;-63
2022/11/26 11:35:21;;;;;;;14.73;2.00;;;10.00;99.90;;;;;;5032493;28;20033;-65
2022/11/26 11:37:56;;;;;;;22.23;2.13;;;10.10;99.90;;;;;;5020852;28;20487;-65
2022/11/26 11:40:27;;;;;;;13.52;2.47;;;10.00;99.90;;;;;;5011350;28;20410;-65
2022/11/26 11:43:01;;;;;;;15.10;1.88;;;10.10;99.90;;;;;;5015860;28;20053;-63
2022/11/26 11:45:37;;;;;;;26.48;4.05;;;10.10;99.90;;;;;;5045843;28;20050;-64
2022/11/26 11:48:46;;;;;;;26.25;2.58;;;10.10;99.90;;;;;;5018559;28;20409;-62
2022/11/26 11:51:35;;;;;;;11.38;3.05;;;10.10;99.90;;;;;;5006862;28;20053;-62
2022/11/26 11:54:21;;;;;;;17.55;2.15;;;10.10;99.90;;;;;;5019766;28;20041;-66
2022/11/26 11:57:03;;;;;;;10.73;1.85;;;10.10;99.90;;;;;;5047326;28;20046;-62
2022/11/26 12:00:13;;;;;;;15.77;2.35;;;10.10;99.90;;;;;;5017269;28;20056;-62
2022/11/26 12:02:52;;;;;;;;;;;10.10;99.90;;;;;;5010858;28;20042;-62
2022/11/26 12:05:38;;;;;;;14.93;3.57;;;10.10;99.90;;;;;;5012102;28;19925;-63
2022/11/26 12:08:14;;;;;;;15.40;1.73;;;10.10;99.90;;;;;;5013200;28;20306;-61
2022/11/26 12:10:50;;;;;;;21.80;2.70;;;10.10;99.90;;;;;;5032754;28;20045;-61
2022/11/26 12:13:20;;;;;;;10.73;2.53;;;10.10;99.90;;;;;;5022998;28;20045;-63
2022/11/26 12:16:02;;;;;;;22.98;3.88;;;10.10;99.90;;;;;;5020485;28;20381;-62
2022/11/26 12:18:35;;;;;;;19.52;2.92;;;10.10;99.90;;;;;;5011972;28;20045;-61
2022/11/26 12:21:13;;;;;;;16.40;2.35;;;10.10;99.90;;;;;;5010111;28;20397;-61
2022/11/26 12:23:48;;;;;;;16.90;2.65;;;10.10;99.90;;;;;;5018932;28;20038;-61
2022/11/26 12:26:19;;;;;;;17.60;3.38;;;10.20;99.90;;;;;;5020895;28;20061;-62
2022/11/26 12:29:10;;;;;;;14.75;2.17;;;10.20;99.90;;;;;;5034795;28;20053;-64
2022/11/26 12:31:47;;;;;;;21.70;2.05;;;10.20;99.90;;;;;;5018389;28;20041;-61
2022/11/26 12:34:28;;;;;;;13.38;2.13;;;10.20;99.90;;;;;;5033006;28;20037;-62
2022/11/26 12:37:04;;;;;;;10.48;2.13;;;10.30;99.90;;;;;;5039109;28;20494;-61
2022/11/26 12:39:54;;;;;;;17.88;2.78;;;10.30;99.90;;;;;;5023611;28;20049;-62
2022/11/26 12:42:40;;;;;;;18.75;2.08;;;10.30;99.90;;;;;;5022346;28;20049;-63
2022/11/26 12:45:45;;;;;;;24.77;3.10;;;10.40;99.90;;;;;;5026631;28;20045;-64
2022/11/26 12:48:30;;;;;;;17.52;2.03;;;10.40;99.90;;;;;;5018073;28;20401;-63
2022/11/26 12:51:17;;;;;;;26.10;3.08;;;10.40;99.90;;;;;;5016429;28;20048;-62
2022/11/26 12:54:01;;;;;;;18.70;2.20;;;10.50;99.90;;;;;;5041380;28;20388;-64
2022/11/26 12:56:32;;;;;;;15.57;2.35;;;10.50;99.90;;;;;;5010318;28;20045;-61
2022/11/26 12:59:18;;;;;;;10.50;2.33;;;10.50;99.90;;;;;;5013054;28;20053;-62
2022/11/26 13:01:48;;;;;;;17.40;2.60;;;10.60;99.90;;;;;;5016590;28;20052;-64
2022/11/26 13:04:18;;;;;;;12.52;2.10;;;10.60;99.90;;;;;;5014292;28;20053;-61
2022/11/26 13:07:48;;;;;;;19.85;2.28;;;10.60;99.90;;;;;;5008420;28;20441;-61
2022/11/26 13:10:28;;;;;;;19.70;2.53;;;10.60;99.90;;;;;;5029012;28;20408;-64
2022/11/26 13:13:05;;;;;;;17.00;1.95;;;10.60;99.90;;;;;;5043194;28;20045;-61
2022/11/26 13:15:41;;;;;;;11.43;1.67;;;10.70;99.90;;;;;;5008387;28;20050;-61